createdAt,value
2022-08-27T00:08:50.435Z,21.01
2022-08-27T00:18:55.295Z,20.79
2022-08-27T00:28:57.116Z,20.72
2022-08-27T00:38:58.923Z,20.64
2022-08-27T00:49:08.215Z,20.63
2022-08-27T00:59:12.194Z,20.42
2022-08-27T01:09:17.437Z,20.33
2022-08-27T01:19:38.213Z,20.37
2022-08-27T01:29:44.308Z,20.11
2022-08-27T01:39:46.200Z,20.01
2022-08-27T01:49:50.994Z,19.89
2022-08-27T01:59:53.019Z,19.80
2022-08-27T02:09:54.753Z,19.73
2022-08-27T02:19:57.153Z,19.61
2022-08-27T02:29:58.969Z,19.53
2022-08-27T02:40:01.827Z,19.46
2022-08-27T02:50:05.068Z,19.28
2022-08-27T03:00:12.989Z,19.17
2022-08-27T03:10:17.239Z,19.12
2022-08-27T03:20:19.097Z,19.07
2022-08-27T03:30:23.079Z,18.99
2022-08-27T03:40:24.862Z,18.82
2022-08-27T03:50:26.532Z,18.79
2022-08-27T04:00:28.601Z,18.71
2022-08-27T04:10:34.760Z,18.62
2022-08-27T04:20:39.880Z,18.74
2022-08-27T04:30:47.182Z,18.80
2022-08-27T04:41:07.576Z,18.97
2022-08-27T04:51:09.318Z,19.18
2022-08-27T05:01:20.909Z,19.29
2022-08-27T05:11:29.323Z,19.61
2022-08-27T05:21:34.396Z,19.89
2022-08-27T05:31:36.818Z,20.20
2022-08-27T05:41:39.713Z,20.55
2022-08-27T05:51:41.753Z,20.94
2022-08-27T06:01:52.350Z,21.29
2022-08-27T06:11:54.646Z,21.72
2022-08-27T06:22:00.191Z,22.26
2022-08-27T06:32:12.356Z,22.78
2022-08-27T06:42:14.099Z,23.59
2022-08-27T06:52:25.852Z,24.13
2022-08-27T07:02:30.629Z,24.68
2022-08-27T07:12:32.478Z,25.41
2022-08-27T07:22:41.285Z,26.04
2022-08-27T07:32:44.088Z,26.64
2022-08-27T07:43:07.369Z,26.56
2022-08-27T07:53:09.873Z,26.49
2022-08-27T08:03:13.600Z,27.49
2022-08-27T08:13:17.362Z,27.98
2022-08-27T08:23:24.256Z,28.60
2022-08-27T08:33:27.706Z,28.67
2022-08-27T08:43:41.753Z,29.07
2022-08-27T08:53:53.710Z,29.89
2022-08-27T09:03:58.655Z,30.45
2022-08-27T09:14:40.553Z,31.82
2022-08-27T09:25:18.986Z,32.95
2022-08-27T09:35:25.981Z,34.27
2022-08-27T09:45:30.308Z,34.37
2022-08-27T09:55:43.918Z,35.15
2022-08-27T10:05:50.982Z,35.83
2022-08-27T10:16:04.774Z,35.41
2022-08-27T10:26:19.640Z,36.39
2022-08-27T10:36:49.100Z,37.52
2022-08-27T10:47:05.932Z,38.23
2022-08-27T10:57:35.384Z,38.23
2022-08-27T11:07:43.557Z,40.36
2022-08-27T11:17:57.399Z,40.86
2022-08-27T11:28:00.768Z,41.84
2022-08-27T11:38:27.693Z,42.52
2022-08-27T11:48:43.261Z,42.15
2022-08-27T11:58:53.070Z,46.45
2022-08-27T12:09:13.039Z,47.32
2022-08-27T12:19:29.071Z,48.46
2022-08-27T12:29:43.957Z,46.88
2022-08-27T12:39:49.546Z,44.98
2022-08-27T12:49:59.923Z,46.87
2022-08-27T13:00:26.445Z,48.78
2022-08-27T13:10:31.467Z,49.94
2022-08-27T13:20:37.583Z,48.88
2022-08-27T13:30:42.791Z,46.26
2022-08-27T13:40:56.574Z,49.18
2022-08-27T13:50:58.941Z,49.29
2022-08-27T14:01:16.495Z,48.38
2022-08-27T14:11:24.264Z,49.10
2022-08-27T14:21:25.925Z,47.72
2022-08-27T14:31:27.809Z,48.18
2022-08-27T14:41:29.526Z,48.92
2022-08-27T14:51:37.212Z,46.98
2022-08-27T15:01:39.377Z,40.54
2022-08-27T15:11:43.506Z,44.33
2022-08-27T15:21:47.906Z,47.50
2022-08-27T15:31:50.419Z,44.67
2022-08-27T15:42:05.666Z,44.88
2022-08-27T15:52:10.470Z,41.85
2022-08-27T16:02:23.414Z,39.31
2022-08-27T16:12:27.237Z,39.96
2022-08-27T16:22:29.367Z,38.29
2022-08-27T16:32:31.785Z,36.97
2022-08-27T16:42:34.582Z,34.13
2022-08-27T16:52:36.599Z,32.86
2022-08-27T17:02:38.464Z,31.58
2022-08-27T17:12:47.239Z,30.58
2022-08-27T17:22:49.006Z,29.87
2022-08-27T17:32:50.710Z,29.10
2022-08-27T17:42:54.163Z,28.65
2022-08-27T17:52:56.275Z,28.16
2022-08-27T18:02:57.951Z,28.19
2022-08-27T18:12:59.946Z,28.02
2022-08-27T18:23:02.080Z,27.85
2022-08-27T18:33:03.934Z,27.50
2022-08-27T18:43:06.250Z,27.03
2022-08-27T18:53:08.125Z,26.59
2022-08-27T19:03:11.773Z,26.24
2022-08-27T19:13:17.825Z,26.04
2022-08-27T19:23:22.338Z,25.83
2022-08-27T19:33:24.321Z,25.64
2022-08-27T19:43:26.341Z,25.36
2022-08-27T19:53:28.171Z,25.29
2022-08-27T20:03:30.037Z,25.07
2022-08-27T20:13:33.332Z,24.75
2022-08-27T20:23:36.562Z,24.67
2022-08-27T20:33:38.505Z,24.68
2022-08-27T20:43:40.125Z,24.50
2022-08-27T20:53:41.891Z,24.29
2022-08-27T21:03:43.982Z,24.23
2022-08-27T21:13:55.574Z,24.03
2022-08-27T21:23:58.020Z,23.93
2022-08-27T21:33:59.734Z,23.91
2022-08-27T21:44:02.094Z,23.74
2022-08-27T21:54:03.883Z,23.61
2022-08-27T22:04:06.731Z,23.47
2022-08-27T22:14:08.360Z,23.38
2022-08-27T22:24:14.779Z,23.24
2022-08-27T22:34:16.659Z,23.00
2022-08-27T22:44:21.316Z,22.82
2022-08-27T22:54:23.359Z,22.65
2022-08-27T23:04:51.345Z,22.63
2022-08-27T23:14:49.834Z,22.57
2022-08-27T23:25:09.835Z,22.30
2022-08-27T23:35:13.480Z,22.15
2022-08-27T23:45:19.229Z,22.03
2022-08-27T23:55:20.869Z,22.15
